»·PEaware :: N701DB KJAC-KDEN

N701DB :: KJAC-KDEN

FLIGHT INFORMATION

Flight Status: Arrived
Operator: Privately registered:
United States
More flights under this callsign
Pilot: Ryan B. (8502)
Aircraft: GULFSTREAM G-1159C GULFSTREAM 4
(GLF4)
More flights by this aircraft type
Origin: KJAC Jackson Hole
United States
Destination: KDEN Denver Intl
United States
More flights between these airports :: More routes between these airports
Route: +ALPIN2 KICNE OCS GWEDO FRNCH3
File this flight plan on PilotEdge
Remarks:
Altitude:
(Current/Filed)
37,000ft
Speed:
(Current/Filed)
483kts
Departed: 02-Nov-17 09:22 AM
Arrived: 02-Nov-17 10:19 AM
Distance/Time
Traveled:
353nm/0:57
Distance/Time
To Go:
Arrived

Flight Plot

Page will automatically refresh every two minutes.

Flight plan parsing failed; only flown route is shown


Map Options




Map Legend


Flown Route
Filed Route
Departure Airport
Arrival Airport
Navaid (VOR, NDB)
Fix

Horizontal Profiles

Position Reports

Time Latitude Longitude Heading Altitude Ground
Speed
02-Nov-17 09:10 43.598797 -110.739191 109 6418ft 0kts
02-Nov-17 09:11 43.598797 -110.739190 109 6418ft 0kts
02-Nov-17 09:12 43.598797 -110.739190 109 6418ft 0kts
02-Nov-17 09:13 43.598797 -110.739190 109 6418ft 0kts
02-Nov-17 09:14 43.598797 -110.739190 109 6418ft 0kts
02-Nov-17 09:15 43.598797 -110.739190 109 6418ft 0kts
02-Nov-17 09:16 43.598797 -110.739190 109 6418ft 0kts
02-Nov-17 09:17 43.598797 -110.739190 109 6418ft 0kts
02-Nov-17 09:18 43.598797 -110.739190 109 6418ft 0kts
02-Nov-17 09:19 43.598797 -110.739190 109 6418ft 0kts
02-Nov-17 09:20 43.598797 -110.739190 109 6418ft 0kts
02-Nov-17 09:21 43.598797 -110.739190 109 6418ft 0kts
02-Nov-17 09:22 43.598784 -110.739158 126 6418ft 1kts
02-Nov-17 09:23 43.600600 -110.739474 18 6420ft 17kts
02-Nov-17 09:24 43.606172 -110.736757 18 6431ft 24kts
02-Nov-17 09:25 43.612821 -110.733505 18 6444ft 21kts
02-Nov-17 09:26 43.614742 -110.732545 357 6448ft 4kts
02-Nov-17 09:27 43.603792 -110.739340 199 6638ft 193kts
02-Nov-17 09:28 43.540159 -110.780867 207 13715ft 291kts
02-Nov-17 09:29 43.470792 -110.826097 209 17590ft 376kts
02-Nov-17 09:30 43.394981 -110.874609 211 20904ft 343kts
02-Nov-17 09:31 43.312669 -110.928056 211 22004ft 381kts
02-Nov-17 09:32 43.209825 -110.952994 169 27847ft 452kts
02-Nov-17 09:33 43.103832 -110.828125 143 31464ft 542kts
02-Nov-17 09:34 42.994800 -110.677355 142 34575ft 578kts
02-Nov-17 09:35 42.884093 -110.524905 140 36851ft 578kts
02-Nov-17 09:36 42.770261 -110.368790 140 36980ft 584kts
02-Nov-17 09:37 42.657346 -110.214965 141 36966ft 583kts
02-Nov-17 09:38 42.570089 -110.031603 98 36985ft 598kts
02-Nov-17 09:39 42.511547 -109.835691 151 37022ft 567kts
02-Nov-17 09:40 42.380763 -109.716813 154 36991ft 569kts
02-Nov-17 09:41 42.249995 -109.599752 154 36987ft 570kts
02-Nov-17 09:42 42.118531 -109.482618 153 37009ft 569kts
02-Nov-17 09:43 41.987166 -109.365883 154 37030ft 570kts
02-Nov-17 09:44 41.857756 -109.251386 154 37010ft 569kts
02-Nov-17 09:45 41.726573 -109.135618 154 37012ft 569kts
02-Nov-17 09:46 41.597885 -109.013006 139 37008ft 585kts
02-Nov-17 09:47 41.528659 -108.813353 113 37024ft 607kts
02-Nov-17 09:48 41.465305 -108.605688 114 37024ft 608kts
02-Nov-17 09:49 41.401507 -108.398831 114 37031ft 608kts
02-Nov-17 09:50 41.337984 -108.201319 119 37044ft 605kts
02-Nov-17 09:51 41.265394 -108.003236 117 37064ft 606kts
02-Nov-17 09:52 41.192230 -107.805525 121 37069ft 605kts
02-Nov-17 09:53 41.113442 -107.610055 120 37072ft 605kts
02-Nov-17 09:54 41.034347 -107.415177 120 37075ft 597kts
02-Nov-17 09:55 40.957693 -107.227571 121 37061ft 585kts
02-Nov-17 09:56 40.884851 -107.049837 121 35611ft 568kts
02-Nov-17 09:57 40.810467 -106.869186 121 34329ft 555kts
02-Nov-17 09:58 40.750080 -106.723241 121 32695ft 542kts
02-Nov-17 09:59 40.667741 -106.525305 121 30803ft 523kts
02-Nov-17 10:00 40.599188 -106.361289 121 29047ft 506kts
02-Nov-17 10:01 40.533794 -106.205224 123 27124ft 488kts
02-Nov-17 10:02 40.469865 -106.052837 122 25245ft 471kts
02-Nov-17 10:03 40.434255 -105.922962 104 24247ft 452kts
02-Nov-17 10:04 40.408912 -105.764543 103 22446ft 441kts
02-Nov-17 10:05 40.386785 -105.625013 103 20961ft 428kts
02-Nov-17 10:06 40.364366 -105.484931 104 19539ft 414kts
02-Nov-17 10:07 40.308549 -105.362335 133 17799ft 387kts
02-Nov-17 10:08 40.246126 -105.263263 135 17171ft 338kts
02-Nov-17 10:09 40.185924 -105.169160 134 15554ft 335kts
02-Nov-17 10:10 40.127447 -105.077834 134 14232ft 326kts
02-Nov-17 10:11 40.070455 -104.989101 134 13474ft 315kts
02-Nov-17 10:12 40.014715 -104.902550 133 13056ft 310kts
02-Nov-17 10:13 39.960158 -104.823164 156 12987ft 294kts
02-Nov-17 10:14 39.887995 -104.808436 180 11133ft 288kts
02-Nov-17 10:15 39.823394 -104.807394 181 10966ft 236kts
02-Nov-17 10:16 39.773333 -104.806002 181 9872ft 230kts
02-Nov-17 10:17 39.722307 -104.805955 181 9002ft 219kts
02-Nov-17 10:18 39.666845 -104.805497 167 8983ft 228kts
02-Nov-17 10:19 39.651764 -104.738247 87 8012ft 225kts
02-Nov-17 10:20 39.672184 -104.677740 30 7814ft 202kts
02-Nov-17 10:21 39.727003 -104.661885 1 7004ft 206kts
02-Nov-17 10:22 39.782564 -104.661043 359 6380ft 167kts
02-Nov-17 10:23 39.821440 -104.660519 359 5653ft 131kts
02-Nov-17 10:24 39.846397 -104.660326 350 5442ft 32kts

Navigation Log

Ident Type
Flight plan parsing failed, navigation log unavailable